createdAt,value
2022-08-28T00:02:01.871Z,68.4
2022-08-28T00:22:01.848Z,68.0
2022-08-28T00:42:01.827Z,68.3
2022-08-28T01:02:01.708Z,69.0
2022-08-28T01:22:01.674Z,68.8
2022-08-28T02:02:01.705Z,68.3
2022-08-28T02:22:01.672Z,68.9
2022-08-28T02:42:01.662Z,68.7
2022-08-28T03:02:01.564Z,69.0
2022-08-28T03:22:01.593Z,69.3
2022-08-28T03:42:01.581Z,69.8
2022-08-28T04:02:01.543Z,69.6
2022-08-28T04:22:01.532Z,69.6
2022-08-28T04:42:01.520Z,70.4
2022-08-28T05:02:01.401Z,70.4
2022-08-28T05:22:01.384Z,70.7
2022-08-28T05:42:01.434Z,70.8
2022-08-28T06:02:01.330Z,70.6
2022-08-28T06:22:01.379Z,69.9
2022-08-28T06:42:01.278Z,69.8
2022-08-28T07:02:01.263Z,69.6
2022-08-28T07:22:01.223Z,69.0
2022-08-28T07:42:01.224Z,68.0
2022-08-28T08:02:01.259Z,66.7
2022-08-28T08:22:01.223Z,67.3
2022-08-28T08:42:01.185Z,64.7
2022-08-28T09:02:01.106Z,65.6
2022-08-28T09:22:01.165Z,62.1
2022-08-28T09:42:01.043Z,61.8
2022-08-28T10:02:01.089Z,60.3
2022-08-28T10:22:00.991Z,58.4
2022-08-28T10:42:01.042Z,54.8
2022-08-28T11:02:00.964Z,52.1
2022-08-28T11:22:01.003Z,50.3
2022-08-28T11:42:00.922Z,49.4
2022-08-28T12:02:00.902Z,48.6
2022-08-28T12:22:00.840Z,47.9
2022-08-28T12:42:00.875Z,45.8
2022-08-28T13:02:00.852Z,44.2
2022-08-28T13:22:00.842Z,45.5
2022-08-28T14:02:00.782Z,44.3
2022-08-28T14:22:00.675Z,44.0
2022-08-28T14:42:00.656Z,46.1
2022-08-28T15:02:00.694Z,42.9
2022-08-28T15:22:00.597Z,42.1
2022-08-28T15:42:00.686Z,42.1
2022-08-28T16:02:00.623Z,41.9
2022-08-28T16:22:00.533Z,42.3
2022-08-28T17:02:00.543Z,43.1
2022-08-28T17:22:00.507Z,43.4
2022-08-28T18:42:00.414Z,45.5
2022-08-28T19:02:00.301Z,47.3
2022-08-28T19:42:00.254Z,49.6
2022-08-28T20:02:00.233Z,50.9
2022-08-28T20:22:00.275Z,51.3
2022-08-28T20:42:00.172Z,51.7
2022-08-28T21:02:00.228Z,53.3
2022-08-28T21:22:00.193Z,54.3
2022-08-28T21:42:00.166Z,54.9
2022-08-28T22:02:00.074Z,54.7
2022-08-28T22:22:00.079Z,51.8
2022-08-28T22:42:00.024Z,51.7
2022-08-28T23:02:00.012Z,50.9
2022-08-28T23:22:00.052Z,50.4
2022-08-28T23:42:00.005Z,51.2
